Foxboro, Wisconsin
Current Conditions -  °F | °C
As of 4:55 AM on Friday 31 Oct 2014 (Local Time) from KSUW Reporting Station
Overcast Overcast  
Wind Chill: 19°   Ceiling: 3400
Heat Index: 29°   Visibility: 10mi
Dew Point: 18°   Wind: 13mph
Humidity: 63%   Direction: 10°N
Pressure: 30.51"   Gusts: 16mph
Location:  46.5°N, 92.29°W
Report Text: KSUW 310955Z AUTO 01011G14KT 10SM OVC034 M01/M08 A3051 RMK AO2 T10151077
Loading
Personal Weather Stations






























Interactive Weather Map
Tropical Storm Tracking
New forecast layout! Learn more

10-Day Weather Forecast

Advertisements
Track Severe Weather on mobile